createdAt,value
2018-11-13T00:01:41.445Z,15.80
2018-11-13T00:04:12.892Z,17.83
2018-11-13T00:06:44.312Z,17.67
2018-11-13T00:09:16.011Z,17.87
2018-11-13T00:11:47.292Z,15.47
2018-11-13T00:14:18.957Z,18.33
2018-11-13T00:16:50.596Z,15.67
2018-11-13T00:19:21.966Z,17.80
2018-11-13T00:21:53.473Z,18.27
2018-11-13T00:24:24.967Z,18.43
2018-11-13T00:26:56.328Z,14.07
2018-11-13T00:29:29.551Z,17.20
2018-11-13T00:32:00.896Z,14.63
2018-11-13T00:34:33.051Z,15.03
2018-11-13T00:37:04.596Z,19.10
2018-11-13T00:39:36.264Z,16.73
2018-11-13T00:42:07.556Z,19.10
2018-11-13T00:44:39.260Z,14.47
2018-11-13T00:47:10.979Z,15.37
2018-11-13T00:49:42.588Z,16.57
2018-11-13T00:52:14.007Z,17.73
2018-11-13T00:54:47.492Z,13.90
2018-11-13T00:57:18.803Z,13.37
2018-11-13T00:59:50.952Z,14.97
2018-11-13T01:02:22.413Z,13.00
2018-11-13T01:04:53.960Z,15.53
2018-11-13T01:07:25.316Z,14.27
2018-11-13T01:09:56.951Z,15.93
2018-11-13T01:12:28.259Z,13.97
2018-11-13T01:15:00.070Z,15.40
2018-11-13T01:17:32.088Z,20.27
2018-11-13T01:20:03.761Z,15.03
2018-11-13T01:22:35.359Z,16.93
2018-11-13T01:25:07.852Z,16.90
2018-11-13T01:27:39.291Z,16.37
2018-11-13T01:30:12.120Z,16.70
2018-11-13T01:32:44.185Z,16.80
2018-11-13T01:35:17.127Z,16.70
2018-11-13T01:37:48.399Z,16.27
2018-11-13T01:40:21.772Z,15.57
2018-11-13T01:42:53.934Z,16.00
2018-11-13T01:45:26.519Z,19.70
2018-11-13T01:47:58.512Z,18.03
2018-11-13T01:50:30.209Z,17.17
2018-11-13T01:53:02.248Z,16.93
2018-11-13T01:55:35.137Z,18.53
2018-11-13T01:58:06.503Z,18.07
2018-11-13T02:00:38.494Z,19.97
2018-11-13T02:03:10.541Z,18.47
2018-11-13T02:05:42.432Z,18.23
2018-11-13T02:08:13.957Z,17.60
2018-11-13T02:10:45.514Z,19.37
2018-11-13T02:13:16.980Z,24.03
2018-11-13T02:15:48.548Z,21.90
2018-11-13T02:18:20.624Z,24.10
2018-11-13T02:20:52.212Z,21.90
2018-11-13T02:23:23.236Z,24.37
2018-11-13T02:25:58.026Z,29.03
2018-11-13T02:28:29.972Z,28.67
2018-11-13T02:31:02.741Z,37.53
2018-11-13T02:33:34.116Z,30.13
2018-11-13T02:36:05.490Z,26.93
2018-11-13T02:38:36.543Z,28.90
2018-11-13T02:41:07.938Z,27.03
2018-11-13T02:43:38.975Z,26.03
2018-11-13T02:46:10.340Z,21.53
2018-11-13T02:48:41.489Z,24.23
2018-11-13T02:51:17.695Z,23.87
2018-11-13T02:53:54.002Z,34.13
2018-11-13T02:56:27.198Z,31.23
2018-11-13T02:58:58.429Z,27.70
2018-11-13T03:01:30.049Z,26.23
2018-11-13T03:04:01.005Z,22.23
2018-11-13T03:06:32.664Z,25.60
2018-11-13T03:09:04.940Z,32.07
2018-11-13T03:11:36.152Z,22.60
2018-11-13T03:14:07.404Z,26.03
2018-11-13T03:16:38.569Z,27.93
2018-11-13T03:19:09.617Z,32.50
2018-11-13T03:21:41.125Z,27.80
2018-11-13T03:24:12.090Z,25.70
2018-11-13T03:26:43.669Z,22.50
2018-11-13T03:29:14.688Z,25.93
2018-11-13T03:31:46.078Z,24.27
2018-11-13T03:34:17.149Z,23.20
2018-11-13T03:36:48.625Z,19.33
2018-11-13T03:39:19.644Z,25.00
2018-11-13T03:41:51.557Z,20.37
2018-11-13T03:44:22.652Z,16.70
2018-11-13T03:46:54.034Z,16.20
2018-11-13T03:49:25.292Z,15.40
2018-11-13T03:51:56.624Z,16.10
2018-11-13T03:54:27.644Z,14.50
2018-11-13T03:56:59.964Z,12.47
2018-11-13T03:59:31.026Z,14.20
2018-11-13T04:02:02.447Z,13.37
2018-11-13T04:04:33.448Z,12.53
2018-11-13T04:07:05.285Z,15.30
2018-11-13T04:09:36.296Z,11.80
2018-11-13T04:12:07.786Z,12.53
2018-11-13T04:14:38.832Z,13.30
2018-11-13T04:17:10.289Z,16.27
2018-11-13T04:19:41.409Z,12.23
2018-11-13T04:22:13.141Z,13.10
2018-11-13T04:24:44.177Z,15.03
2018-11-13T04:27:15.509Z,14.20
2018-11-13T04:29:46.613Z,12.07
2018-11-13T04:32:18.169Z,18.40
2018-11-13T04:34:49.225Z,12.53
2018-11-13T04:37:20.589Z,12.73
2018-11-13T04:39:51.584Z,14.03
2018-11-13T04:42:23.041Z,13.03
2018-11-13T04:44:54.173Z,13.33
2018-11-13T04:47:25.540Z,14.67
2018-11-13T04:49:56.566Z,11.40
2018-11-13T04:52:27.897Z,15.10
2018-11-13T04:54:58.875Z,11.70
2018-11-13T04:57:30.921Z,14.23
2018-11-13T05:00:03.139Z,14.97
2018-11-13T05:02:34.566Z,17.20
2018-11-13T05:05:05.833Z,12.17
2018-11-13T05:07:37.843Z,15.90
2018-11-13T05:10:11.018Z,11.53
2018-11-13T05:12:43.757Z,14.70
2018-11-13T05:15:14.809Z,11.80
2018-11-13T05:17:46.830Z,10.50
2018-11-13T05:20:19.106Z,10.90
2018-11-13T05:22:50.688Z,19.57
2018-11-13T05:25:22.283Z,13.47
2018-11-13T05:27:53.352Z,14.07
2018-11-13T05:30:24.752Z,10.13
2018-11-13T05:32:56.002Z,11.10
2018-11-13T05:35:27.065Z,10.80
2018-11-13T05:37:58.485Z,11.17
2018-11-13T05:40:29.497Z,9.53
2018-11-13T05:43:01.244Z,14.07
2018-11-13T05:45:32.295Z,12.83
2018-11-13T05:48:03.584Z,9.83
2018-11-13T05:50:34.541Z,13.53
2018-11-13T05:53:05.794Z,10.10
2018-11-13T05:55:36.944Z,11.73
2018-11-13T05:58:09.544Z,9.73
2018-11-13T06:00:40.688Z,12.83
2018-11-13T06:03:12.324Z,13.00
2018-11-13T06:05:43.442Z,19.17
2018-11-13T06:08:18.648Z,20.10
2018-11-13T06:10:49.857Z,8.80
2018-11-13T06:13:21.036Z,10.87
2018-11-13T06:15:52.125Z,13.30
2018-11-13T06:18:23.609Z,10.53
2018-11-13T06:20:54.682Z,9.97
2018-11-13T06:23:25.960Z,10.33
2018-11-13T06:25:57.101Z,10.70
2018-11-13T06:28:28.395Z,10.33
2018-11-13T06:30:59.404Z,10.00
2018-11-13T06:33:30.805Z,11.00
2018-11-13T06:36:01.853Z,9.47
2018-11-13T06:38:33.129Z,11.90
2018-11-13T06:41:04.150Z,9.07
2018-11-13T06:43:35.497Z,12.90
2018-11-13T06:46:06.870Z,10.53
2018-11-13T06:48:38.120Z,8.97
2018-11-13T06:51:09.218Z,9.80
2018-11-13T06:53:50.722Z,11.00
2018-11-13T06:56:22.104Z,12.67
2018-11-13T06:58:55.005Z,8.73
2018-11-13T07:01:25.953Z,10.00
2018-11-13T07:03:57.389Z,11.77
2018-11-13T07:06:28.457Z,9.17
2018-11-13T07:09:00.280Z,11.57
2018-11-13T07:11:31.260Z,7.73
2018-11-13T07:14:02.420Z,9.20
2018-11-13T07:16:33.360Z,10.73
2018-11-13T07:19:04.828Z,9.07
2018-11-13T07:21:35.925Z,7.40
2018-11-13T07:24:07.555Z,12.10
2018-11-13T07:26:38.538Z,7.70
2018-11-13T07:29:09.758Z,8.17
2018-11-13T07:31:40.731Z,9.30
2018-11-13T07:34:12.771Z,8.53
2018-11-13T07:36:44.247Z,7.60
2018-11-13T07:39:15.834Z,16.70
2018-11-13T07:41:47.236Z,12.93
2018-11-13T07:44:18.786Z,8.53
2018-11-13T07:46:50.138Z,9.80
2018-11-13T07:49:22.116Z,9.73
2018-11-13T07:51:53.510Z,12.03
2018-11-13T07:54:25.188Z,6.80
2018-11-13T07:56:56.641Z,9.90
2018-11-13T07:59:29.545Z,12.73
2018-11-13T08:02:00.875Z,8.80
2018-11-13T08:04:33.130Z,8.73
2018-11-13T08:07:06.060Z,8.77
2018-11-13T08:09:37.994Z,6.10
2018-11-13T08:12:09.344Z,8.77
2018-11-13T08:14:41.153Z,7.53
2018-11-13T08:17:13.280Z,12.97
2018-11-13T08:19:45.085Z,8.77
2018-11-13T08:22:16.686Z,9.87
2018-11-13T08:24:49.217Z,9.40
2018-11-13T08:27:20.829Z,8.10
2018-11-13T08:29:52.860Z,8.03
2018-11-13T08:32:24.225Z,7.30
2018-11-13T08:34:55.898Z,10.50
2018-11-13T08:37:27.570Z,9.83
2018-11-13T08:39:59.369Z,5.90
2018-11-13T08:42:30.293Z,5.57
2018-11-13T08:45:02.472Z,10.73
2018-11-13T08:47:33.554Z,4.37
2018-11-13T08:50:05.358Z,9.07
2018-11-13T08:52:36.345Z,9.47
2018-11-13T08:55:07.957Z,10.60
2018-11-13T08:57:38.947Z,6.60
2018-11-13T09:00:13.154Z,7.63
2018-11-13T09:02:44.573Z,12.30
2018-11-13T09:05:16.225Z,11.60
2018-11-13T09:07:47.416Z,8.80
2018-11-13T09:10:19.670Z,15.60
2018-11-13T09:12:50.583Z,11.60
2018-11-13T09:15:22.637Z,9.43
2018-11-13T09:17:53.802Z,10.87
2018-11-13T09:20:25.197Z,7.67
2018-11-13T09:22:56.270Z,6.67
2018-11-13T09:25:27.717Z,14.37
2018-11-13T09:27:58.928Z,9.33
2018-11-13T09:30:30.541Z,8.20
2018-11-13T09:33:02.454Z,7.47
2018-11-13T09:35:33.899Z,7.17
2018-11-13T09:38:04.931Z,11.37
2018-11-13T09:40:36.560Z,6.73
2018-11-13T09:43:07.669Z,11.10
2018-11-13T09:45:39.921Z,9.00
2018-11-13T09:48:10.905Z,9.53
2018-11-13T09:50:42.027Z,9.30
2018-11-13T09:53:13.199Z,7.10
2018-11-13T09:55:44.596Z,9.30
2018-11-13T09:58:15.684Z,7.40
2018-11-13T10:00:48.248Z,6.10
2018-11-13T10:03:19.923Z,10.73
2018-11-13T10:05:50.952Z,6.13
2018-11-13T10:08:22.113Z,9.80
2018-11-13T10:10:53.421Z,7.57
2018-11-13T10:13:24.465Z,7.10
2018-11-13T10:15:55.881Z,7.10
2018-11-13T10:18:26.932Z,8.17
2018-11-13T10:20:58.078Z,10.83
2018-11-13T10:23:29.146Z,8.97
2018-11-13T10:26:00.806Z,12.20
2018-11-13T10:28:31.880Z,7.63
2018-11-13T10:31:03.998Z,6.67
2018-11-13T10:33:34.990Z,8.20
2018-11-13T10:36:06.313Z,10.50
2018-11-13T10:38:37.387Z,8.57
2018-11-13T10:41:09.270Z,9.03
2018-11-13T10:43:40.301Z,8.37
2018-11-13T10:46:11.516Z,7.73
2018-11-13T10:48:42.591Z,8.97
2018-11-13T10:51:13.995Z,16.50
2018-11-13T10:53:45.182Z,8.03
2018-11-13T10:56:16.724Z,9.90
2018-11-13T10:58:47.733Z,10.13
2018-11-13T11:01:25.681Z,9.03
2018-11-13T11:04:01.615Z,6.90
2018-11-13T11:06:35.012Z,7.40
2018-11-13T11:09:08.046Z,9.10
2018-11-13T11:11:40.404Z,11.50
2018-11-13T11:14:12.265Z,10.33
2018-11-13T11:16:43.650Z,6.90
2018-11-13T11:19:14.664Z,10.10
2018-11-13T11:21:46.193Z,14.67
2018-11-13T11:24:17.435Z,11.17
2018-11-13T11:26:48.688Z,8.00
2018-11-13T11:29:19.826Z,10.73
2018-11-13T11:31:51.205Z,9.53
2018-11-13T11:34:22.233Z,11.53
2018-11-13T11:36:53.439Z,9.30
2018-11-13T11:39:24.436Z,16.50
2018-11-13T11:41:56.098Z,17.67
2018-11-13T11:44:27.207Z,7.70
2018-11-13T11:46:58.433Z,6.70
2018-11-13T11:49:30.328Z,6.97
2018-11-13T11:52:02.397Z,9.47
2018-11-13T11:54:34.329Z,8.80
2018-11-13T11:57:08.657Z,6.33
2018-11-13T11:59:39.720Z,9.43
2018-11-13T12:02:13.221Z,9.40
2018-11-13T12:04:44.364Z,10.23
2018-11-13T12:07:17.649Z,9.77
2018-11-13T12:09:48.793Z,6.53
2018-11-13T12:12:20.334Z,7.63
2018-11-13T12:14:51.541Z,14.97
2018-11-13T12:17:23.424Z,8.50
2018-11-13T12:19:54.894Z,9.00
2018-11-13T12:22:26.379Z,7.03
2018-11-13T12:24:57.694Z,8.27
2018-11-13T12:27:29.806Z,8.17
2018-11-13T12:30:01.358Z,8.13
2018-11-13T12:32:33.152Z,6.27
2018-11-13T12:35:05.507Z,9.37
2018-11-13T12:37:37.489Z,10.20
2018-11-13T12:40:10.405Z,12.60
2018-11-13T12:42:42.409Z,8.23
2018-11-13T12:45:13.918Z,11.00
2018-11-13T12:47:46.413Z,5.90
2018-11-13T12:50:19.130Z,7.47
2018-11-13T12:52:51.289Z,9.83
2018-11-13T12:55:23.951Z,7.70
2018-11-13T12:57:58.146Z,8.23
2018-11-13T13:00:28.400Z,7.13
2018-11-13T13:03:05.065Z,8.37
2018-11-13T13:05:36.960Z,7.60
2018-11-13T13:08:08.643Z,11.20
2018-11-13T13:10:39.941Z,9.10
2018-11-13T13:13:11.933Z,8.53
2018-11-13T13:15:47.120Z,16.40
2018-11-13T13:18:18.551Z,7.10
2018-11-13T13:20:49.611Z,6.93
2018-11-13T13:23:21.154Z,9.37
2018-11-13T13:25:52.496Z,5.83
2018-11-13T13:28:23.885Z,8.70
2018-11-13T13:30:55.006Z,10.23
2018-11-13T13:33:27.633Z,7.47
2018-11-13T13:36:01.137Z,9.53
2018-11-13T13:38:34.057Z,13.03
2018-11-13T13:41:07.301Z,7.90
2018-11-13T13:43:38.960Z,12.60
2018-11-13T13:46:10.824Z,9.87
2018-11-13T13:48:42.237Z,9.13
2018-11-13T13:51:13.317Z,7.77
2018-11-13T13:53:44.778Z,14.63
2018-11-13T13:56:16.013Z,7.23
2018-11-13T13:58:47.718Z,7.70
2018-11-13T14:01:18.709Z,12.67
2018-11-13T14:03:52.522Z,11.93
2018-11-13T14:06:23.580Z,8.07
2018-11-13T14:08:55.009Z,8.60
2018-11-13T14:11:26.574Z,8.83
2018-11-13T14:13:57.760Z,10.80
2018-11-13T14:16:29.321Z,8.50
2018-11-13T14:19:03.040Z,13.77
2018-11-13T14:21:34.560Z,13.60
2018-11-13T14:24:06.403Z,9.23
2018-11-13T14:26:37.877Z,8.67
2018-11-13T14:29:09.609Z,12.73
2018-11-13T14:31:41.260Z,7.60
2018-11-13T14:34:13.157Z,9.60
2018-11-13T14:36:44.432Z,8.67
2018-11-13T14:39:16.306Z,11.03
2018-11-13T14:41:47.619Z,17.40
2018-11-13T14:44:19.128Z,11.63
2018-11-13T14:46:50.665Z,9.50
2018-11-13T14:49:22.382Z,13.43
2018-11-13T14:51:53.760Z,8.47
2018-11-13T14:54:25.707Z,11.07
2018-11-13T14:56:57.272Z,8.13
2018-11-13T14:59:28.893Z,14.00
2018-11-13T15:02:00.400Z,18.47
2018-11-13T15:04:33.246Z,10.70
2018-11-13T15:07:05.264Z,11.77
2018-11-13T15:09:37.037Z,12.47
2018-11-13T15:12:08.592Z,10.40
2018-11-13T15:14:40.184Z,14.70
2018-11-13T15:17:11.648Z,13.67
2018-11-13T15:19:43.304Z,12.00
2018-11-13T15:22:14.590Z,15.23
2018-11-13T15:24:46.424Z,11.80
2018-11-13T15:27:17.929Z,9.63
2018-11-13T15:29:49.549Z,13.33
2018-11-13T15:32:21.073Z,10.23
2018-11-13T15:34:53.038Z,13.37
2018-11-13T15:37:24.309Z,12.30
2018-11-13T15:39:55.928Z,12.87
2018-11-13T15:42:27.553Z,11.47
2018-11-13T15:44:59.109Z,10.10
2018-11-13T15:47:30.586Z,15.33
2018-11-13T15:50:02.267Z,14.63
2018-11-13T15:52:33.543Z,12.00
2018-11-13T15:55:05.954Z,12.63
2018-11-13T15:57:38.156Z,20.13
2018-11-13T16:00:17.081Z,11.03
2018-11-13T16:02:48.420Z,13.07
2018-11-13T16:05:29.010Z,10.50
2018-11-13T16:08:01.648Z,14.90
2018-11-13T16:10:34.528Z,12.23
2018-11-13T16:13:06.855Z,14.07
2018-11-13T16:15:38.589Z,7.70
2018-11-13T16:18:12.515Z,9.00
2018-11-13T16:20:44.281Z,12.50
2018-11-13T16:23:15.830Z,16.30
2018-11-13T16:25:48.109Z,9.27
2018-11-13T16:28:19.733Z,9.37
2018-11-13T16:30:51.518Z,7.23
2018-11-13T16:33:22.759Z,8.60
2018-11-13T16:35:54.741Z,15.67
2018-11-13T16:38:26.415Z,12.77
2018-11-13T16:40:57.941Z,10.90
2018-11-13T16:43:29.303Z,8.23
2018-11-13T16:46:00.877Z,6.70
2018-11-13T16:48:32.604Z,9.70
2018-11-13T16:51:04.377Z,10.13
2018-11-13T16:53:40.768Z,10.20
2018-11-13T16:56:12.154Z,9.90
2018-11-13T16:58:44.165Z,16.00
2018-11-13T17:01:16.093Z,13.67
2018-11-13T17:03:47.815Z,9.30
2018-11-13T17:06:21.207Z,17.17
2018-11-13T17:08:52.725Z,13.27
2018-11-13T17:11:25.026Z,13.17
2018-11-13T17:13:56.435Z,12.93
2018-11-13T17:16:28.209Z,8.90
2018-11-13T17:18:59.645Z,12.43
2018-11-13T17:21:31.565Z,10.87
2018-11-13T17:24:03.098Z,10.27
2018-11-13T17:26:35.678Z,10.97
2018-11-13T17:29:07.048Z,12.23
2018-11-13T17:31:38.872Z,7.67
2018-11-13T17:34:10.469Z,7.27
2018-11-13T17:36:42.249Z,9.20
2018-11-13T17:39:14.873Z,11.23
2018-11-13T17:41:46.580Z,10.37
2018-11-13T17:44:18.061Z,13.03
2018-11-13T17:46:49.681Z,12.57
2018-11-13T17:49:21.288Z,11.77
2018-11-13T17:51:53.115Z,8.93
2018-11-13T17:54:24.491Z,10.10
2018-11-13T17:56:56.415Z,11.43
2018-11-13T17:59:27.958Z,11.23
2018-11-13T18:01:59.573Z,11.50
2018-11-13T18:04:31.145Z,7.47
2018-11-13T18:07:03.873Z,12.13
2018-11-13T18:09:35.120Z,15.50
2018-11-13T18:12:06.654Z,11.63
2018-11-13T18:14:38.061Z,11.40
2018-11-13T18:17:09.911Z,10.63
2018-11-13T18:19:41.254Z,10.00
2018-11-13T18:22:12.885Z,10.53
2018-11-13T18:24:44.549Z,9.37
2018-11-13T18:27:16.522Z,9.83
2018-11-13T18:29:47.973Z,19.07
2018-11-13T18:32:19.622Z,11.20
2018-11-13T18:34:50.721Z,8.63
2018-11-13T18:37:22.378Z,9.10
2018-11-13T18:39:53.860Z,11.97
2018-11-13T18:42:26.385Z,11.63
2018-11-13T18:44:57.787Z,11.03
2018-11-13T18:47:29.552Z,11.83
2018-11-13T18:50:01.108Z,11.10
2018-11-13T18:52:32.580Z,13.00
2018-11-13T18:55:04.977Z,11.50
2018-11-13T18:57:36.736Z,8.20
2018-11-13T19:00:10.913Z,12.30
2018-11-13T19:02:42.789Z,10.43
2018-11-13T19:05:14.810Z,14.70
2018-11-13T19:07:47.905Z,16.67
2018-11-13T19:10:27.761Z,10.33
2018-11-13T19:13:00.628Z,9.87
2018-11-13T19:15:33.122Z,9.30
2018-11-13T19:18:05.373Z,14.10
2018-11-13T19:20:36.880Z,10.33
2018-11-13T19:23:08.777Z,20.20
2018-11-13T19:25:40.529Z,26.23
2018-11-13T19:28:12.249Z,21.83
2018-11-13T19:30:43.783Z,29.50
2018-11-13T19:33:15.175Z,28.93
2018-11-13T19:35:46.823Z,23.77
2018-11-13T19:38:19.337Z,23.17
2018-11-13T19:40:50.741Z,16.73
2018-11-13T19:43:22.269Z,22.13
2018-11-13T19:45:53.797Z,25.10
2018-11-13T19:48:25.326Z,17.63
2018-11-13T19:50:56.648Z,31.50
2018-11-13T19:53:28.903Z,20.57
2018-11-13T19:56:00.448Z,16.90
2018-11-13T19:58:31.968Z,14.33
2018-11-13T20:01:04.392Z,11.63
2018-11-13T20:03:36.718Z,6.23
2018-11-13T20:06:08.047Z,11.93
2018-11-13T20:08:40.257Z,7.30
2018-11-13T20:11:11.654Z,10.87
2018-11-13T20:13:43.004Z,11.17
2018-11-13T20:16:14.353Z,10.33
2018-11-13T20:18:45.897Z,9.83
2018-11-13T20:21:17.170Z,8.40
2018-11-13T20:23:49.052Z,8.23
2018-11-13T20:26:20.418Z,8.90
2018-11-13T20:28:52.113Z,10.50
2018-11-13T20:31:23.651Z,11.20
2018-11-13T20:33:55.184Z,10.77
2018-11-13T20:36:26.464Z,8.07
2018-11-13T20:38:58.045Z,5.43
2018-11-13T20:41:29.476Z,7.33
2018-11-13T20:44:02.426Z,7.17
2018-11-13T20:46:33.848Z,8.53
2018-11-13T20:49:05.796Z,10.47
2018-11-13T20:51:37.514Z,7.93
2018-11-13T20:54:09.245Z,7.50
2018-11-13T20:56:40.469Z,7.13
2018-11-13T20:59:12.200Z,9.37
2018-11-13T21:01:43.585Z,8.87
2018-11-13T21:04:15.269Z,7.30
2018-11-13T21:06:46.713Z,10.07
2018-11-13T21:09:19.682Z,9.80
2018-11-13T21:11:50.966Z,7.83
2018-11-13T21:14:22.481Z,8.33
2018-11-13T21:16:54.085Z,10.53
2018-11-13T21:19:25.675Z,9.07
2018-11-13T21:21:57.282Z,8.50
2018-11-13T21:24:28.968Z,5.40
2018-11-13T21:27:00.423Z,7.10
2018-11-13T21:29:32.538Z,10.80
2018-11-13T21:32:03.789Z,6.07
2018-11-13T21:34:35.601Z,9.00
2018-11-13T21:37:08.758Z,8.37
2018-11-13T21:39:40.472Z,7.77
2018-11-13T21:42:11.938Z,6.40
2018-11-13T21:44:43.796Z,8.70
2018-11-13T21:47:15.283Z,13.57
2018-11-13T21:49:47.050Z,9.87
2018-11-13T21:52:19.500Z,7.97
2018-11-13T21:54:51.005Z,6.70
2018-11-13T21:57:22.320Z,19.37
2018-11-13T21:59:53.833Z,25.17
2018-11-13T22:02:25.925Z,13.40
2018-11-13T22:04:58.298Z,21.33
2018-11-13T22:07:29.547Z,21.70
2018-11-13T22:10:02.217Z,26.60
2018-11-13T22:12:33.645Z,21.47
2018-11-13T22:15:07.938Z,20.20
2018-11-13T22:17:39.357Z,27.70
2018-11-13T22:20:13.037Z,26.17
2018-11-13T22:22:44.554Z,29.77
2018-11-13T22:25:19.026Z,16.17
2018-11-13T22:27:51.604Z,14.83
2018-11-13T22:30:27.549Z,21.40
2018-11-13T22:32:59.183Z,14.07
2018-11-13T22:35:31.708Z,22.83
2018-11-13T22:38:03.813Z,24.80
2018-11-13T22:40:35.587Z,18.33
2018-11-13T22:43:06.905Z,24.67
2018-11-13T22:45:38.604Z,21.00
2018-11-13T22:48:10.290Z,22.90
2018-11-13T22:50:41.886Z,22.40
2018-11-13T22:53:13.240Z,14.87
2018-11-13T22:55:45.077Z,16.50
2018-11-13T22:58:16.188Z,18.53
2018-11-13T23:00:48.725Z,21.53
2018-11-13T23:03:20.728Z,17.93
2018-11-13T23:05:52.424Z,18.43
2018-11-13T23:08:23.955Z,17.97
2018-11-13T23:10:57.804Z,14.33
2018-11-13T23:13:29.474Z,20.37
2018-11-13T23:16:01.284Z,19.97
2018-11-13T23:18:32.680Z,19.07
2018-11-13T23:21:04.753Z,16.63
2018-11-13T23:23:36.108Z,26.23
2018-11-13T23:26:07.500Z,18.30
2018-11-13T23:28:39.112Z,19.53
2018-11-13T23:31:10.649Z,36.00
2018-11-13T23:33:42.105Z,23.53
2018-11-13T23:36:13.741Z,15.13
2018-11-13T23:38:45.138Z,20.30
2018-11-13T23:41:16.973Z,16.87
2018-11-13T23:43:48.322Z,13.80
2018-11-13T23:46:19.844Z,15.80
2018-11-13T23:48:51.336Z,14.33
2018-11-13T23:51:22.982Z,12.00
2018-11-13T23:53:54.623Z,18.73
2018-11-13T23:56:26.781Z,18.77
2018-11-13T23:58:58.268Z,19.70
